sensor_id;sensor_type;location;lat;lon;timestamp;temperature;humidity
16767;DHT22;8501;49.926;8.404;2023-06-22T00:01:58;26.00;99.90
16767;DHT22;8501;49.926;8.404;2023-06-22T00:04:24;25.90;99.90
16767;DHT22;8501;49.926;8.404;2023-06-22T00:06:50;26.00;99.90
16767;DHT22;8501;49.926;8.404;2023-06-22T00:09:16;26.00;99.90
16767;DHT22;8501;49.926;8.404;2023-06-22T00:11:41;26.00;99.90
16767;DHT22;8501;49.926;8.404;2023-06-22T00:14:07;26.00;99.90
16767;DHT22;8501;49.926;8.404;2023-06-22T00:16:33;26.00;99.90
16767;DHT22;8501;49.926;8.404;2023-06-22T00:18:59;25.90;99.90
16767;DHT22;8501;49.926;8.404;2023-06-22T00:21:26;25.90;99.90
16767;DHT22;8501;49.926;8.404;2023-06-22T00:23:52;25.90;99.90
16767;DHT22;8501;49.926;8.404;2023-06-22T00:26:18;25.90;99.90
16767;DHT22;8501;49.926;8.404;2023-06-22T00:28:43;25.70;99.90
16767;DHT22;8501;49.926;8.404;2023-06-22T00:31:09;25.70;99.90
16767;DHT22;8501;49.926;8.404;2023-06-22T00:33:34;25.60;99.90
16767;DHT22;8501;49.926;8.404;2023-06-22T00:36:00;25.60;99.90
16767;DHT22;8501;49.926;8.404;2023-06-22T00:38:28;25.50;99.90
16767;DHT22;8501;49.926;8.404;2023-06-22T00:40:54;25.40;99.90
16767;DHT22;8501;49.926;8.404;2023-06-22T00:43:20;25.50;99.90
16767;DHT22;8501;49.926;8.404;2023-06-22T00:45:45;25.60;99.90
16767;DHT22;8501;49.926;8.404;2023-06-22T00:48:12;25.60;99.90
16767;DHT22;8501;49.926;8.404;2023-06-22T00:50:37;25.60;99.90
16767;DHT22;8501;49.926;8.404;2023-06-22T00:53:06;25.60;99.90
16767;DHT22;8501;49.926;8.404;2023-06-22T00:55:44;25.60;99.90
16767;DHT22;8501;49.926;8.404;2023-06-22T00:58:17;25.50;99.90
16767;DHT22;8501;49.926;8.404;2023-06-22T01:00:47;25.30;99.90
16767;DHT22;8501;49.926;8.404;2023-06-22T01:03:13;25.30;99.90
16767;DHT22;8501;49.926;8.404;2023-06-22T01:05:39;25.30;99.90
16767;DHT22;8501;49.926;8.404;2023-06-22T01:08:38;25.30;99.90
16767;DHT22;8501;49.926;8.404;2023-06-22T01:16:23;25.30;99.90
16767;DHT22;8501;49.926;8.404;2023-06-22T01:18:52;25.30;99.90
16767;DHT22;8501;49.926;8.404;2023-06-22T01:21:19;25.20;99.90
16767;DHT22;8501;49.926;8.404;2023-06-22T01:26:36;25.00;99.90
16767;DHT22;8501;49.926;8.404;2023-06-22T01:29:04;24.90;99.90
16767;DHT22;8501;49.926;8.404;2023-06-22T01:31:31;24.80;99.90
16767;DHT22;8501;49.926;8.404;2023-06-22T01:34:00;24.70;99.90
16767;DHT22;8501;49.926;8.404;2023-06-22T01:36:27;24.70;99.90
16767;DHT22;8501;49.926;8.404;2023-06-22T01:38:53;24.70;99.90
16767;DHT22;8501;49.926;8.404;2023-06-22T01:41:20;24.60;99.90
16767;DHT22;8501;49.926;8.404;2023-06-22T01:43:47;24.70;99.90
16767;DHT22;8501;49.926;8.404;2023-06-22T01:46:14;24.80;99.90
16767;DHT22;8501;49.926;8.404;2023-06-22T01:48:40;24.80;99.90
16767;DHT22;8501;49.926;8.404;2023-06-22T01:51:06;24.70;99.90
16767;DHT22;8501;49.926;8.404;2023-06-22T01:53:31;24.60;99.90
16767;DHT22;8501;49.926;8.404;2023-06-22T01:55:57;24.60;99.90
16767;DHT22;8501;49.926;8.404;2023-06-22T01:58:26;24.60;99.90
16767;DHT22;8501;49.926;8.404;2023-06-22T02:01:12;24.50;99.90
16767;DHT22;8501;49.926;8.404;2023-06-22T02:03:47;24.50;99.90
16767;DHT22;8501;49.926;8.404;2023-06-22T02:06:30;24.50;99.90
16767;DHT22;8501;49.926;8.404;2023-06-22T02:09:02;24.50;99.90
16767;DHT22;8501;49.926;8.404;2023-06-22T02:11:29;24.50;99.90
16767;DHT22;8501;49.926;8.404;2023-06-22T02:13:57;24.50;99.90
16767;DHT22;8501;49.926;8.404;2023-06-22T02:16:23;24.50;99.90
16767;DHT22;8501;49.926;8.404;2023-06-22T02:18:50;24.40;99.90
16767;DHT22;8501;49.926;8.404;2023-06-22T02:21:19;24.40;99.90
16767;DHT22;8501;49.926;8.404;2023-06-22T02:23:45;24.40;99.90
16767;DHT22;8501;49.926;8.404;2023-06-22T02:26:11;24.40;99.90
16767;DHT22;8501;49.926;8.404;2023-06-22T02:28:37;24.30;99.90
16767;DHT22;8501;49.926;8.404;2023-06-22T02:31:02;24.30;99.90
16767;DHT22;8501;49.926;8.404;2023-06-22T02:33:28;24.30;99.90
16767;DHT22;8501;49.926;8.404;2023-06-22T02:35:54;24.30;99.90
16767;DHT22;8501;49.926;8.404;2023-06-22T02:38:19;24.30;99.90
16767;DHT22;8501;49.926;8.404;2023-06-22T02:40:46;24.30;99.90
16767;DHT22;8501;49.926;8.404;2023-06-22T02:43:12;24.30;99.90
16767;DHT22;8501;49.926;8.404;2023-06-22T02:45:37;24.30;99.90
16767;DHT22;8501;49.926;8.404;2023-06-22T02:48:03;24.30;99.90
16767;DHT22;8501;49.926;8.404;2023-06-22T02:50:29;24.20;99.90
16767;DHT22;8501;49.926;8.404;2023-06-22T02:52:55;24.20;99.90
16767;DHT22;8501;49.926;8.404;2023-06-22T02:55:20;24.20;99.90
16767;DHT22;8501;49.926;8.404;2023-06-22T02:57:46;24.20;99.90
16767;DHT22;8501;49.926;8.404;2023-06-22T03:00:14;24.20;99.90
16767;DHT22;8501;49.926;8.404;2023-06-22T03:02:47;24.10;99.90
16767;DHT22;8501;49.926;8.404;2023-06-22T03:05:13;24.10;99.90
16767;DHT22;8501;49.926;8.404;2023-06-22T03:07:42;24.10;99.90
16767;DHT22;8501;49.926;8.404;2023-06-22T03:10:09;24.20;99.90
16767;DHT22;8501;49.926;8.404;2023-06-22T03:12:36;24.20;99.90
16767;DHT22;8501;49.926;8.404;2023-06-22T03:15:01;24.20;99.90
16767;DHT22;8501;49.926;8.404;2023-06-22T03:17:27;24.20;99.90
16767;DHT22;8501;49.926;8.404;2023-06-22T03:19:52;24.10;99.90
16767;DHT22;8501;49.926;8.404;2023-06-22T03:22:18;24.00;99.90
16767;DHT22;8501;49.926;8.404;2023-06-22T03:24:43;24.10;99.90
16767;DHT22;8501;49.926;8.404;2023-06-22T03:27:09;24.10;99.90
16767;DHT22;8501;49.926;8.404;2023-06-22T03:29:34;24.00;99.90
16767;DHT22;8501;49.926;8.404;2023-06-22T03:32:00;23.90;99.90
16767;DHT22;8501;49.926;8.404;2023-06-22T03:34:25;23.90;99.90
16767;DHT22;8501;49.926;8.404;2023-06-22T03:36:51;23.90;99.90
16767;DHT22;8501;49.926;8.404;2023-06-22T03:39:16;23.90;99.90
16767;DHT22;8501;49.926;8.404;2023-06-22T03:41:42;23.90;99.90
16767;DHT22;8501;49.926;8.404;2023-06-22T03:44:07;23.90;99.90
16767;DHT22;8501;49.926;8.404;2023-06-22T03:46:37;23.90;99.90
16767;DHT22;8501;49.926;8.404;2023-06-22T03:49:03;23.90;99.90
16767;DHT22;8501;49.926;8.404;2023-06-22T03:51:29;23.90;99.90
16767;DHT22;8501;49.926;8.404;2023-06-22T03:53:54;23.90;99.90
16767;DHT22;8501;49.926;8.404;2023-06-22T03:56:20;23.80;99.90
16767;DHT22;8501;49.926;8.404;2023-06-22T03:58:46;23.80;99.90
16767;DHT22;8501;49.926;8.404;2023-06-22T04:01:12;23.80;99.90
16767;DHT22;8501;49.926;8.404;2023-06-22T04:03:38;23.80;99.90
16767;DHT22;8501;49.926;8.404;2023-06-22T04:06:04;23.80;99.90
16767;DHT22;8501;49.926;8.404;2023-06-22T04:08:29;23.80;99.90
16767;DHT22;8501;49.926;8.404;2023-06-22T04:10:55;23.80;99.90
16767;DHT22;8501;49.926;8.404;2023-06-22T04:13:21;23.70;99.90
16767;DHT22;8501;49.926;8.404;2023-06-22T04:15:46;23.70;99.90
16767;DHT22;8501;49.926;8.404;2023-06-22T04:18:12;23.70;99.90
16767;DHT22;8501;49.926;8.404;2023-06-22T04:20:38;23.70;99.90
16767;DHT22;8501;49.926;8.404;2023-06-22T04:23:04;23.70;99.90
16767;DHT22;8501;49.926;8.404;2023-06-22T04:25:29;23.70;99.90
16767;DHT22;8501;49.926;8.404;2023-06-22T04:27:55;23.60;99.90
16767;DHT22;8501;49.926;8.404;2023-06-22T04:30:21;23.70;99.90
16767;DHT22;8501;49.926;8.404;2023-06-22T04:32:47;23.70;99.90
16767;DHT22;8501;49.926;8.404;2023-06-22T04:35:21;23.70;99.90
16767;DHT22;8501;49.926;8.404;2023-06-22T04:37:48;23.70;99.90
16767;DHT22;8501;49.926;8.404;2023-06-22T04:40:15;23.60;99.90
16767;DHT22;8501;49.926;8.404;2023-06-22T04:42:40;23.60;99.90
16767;DHT22;8501;49.926;8.404;2023-06-22T04:45:08;23.50;99.90
16767;DHT22;8501;49.926;8.404;2023-06-22T04:47:34;23.50;99.90
16767;DHT22;8501;49.926;8.404;2023-06-22T04:50:04;23.40;99.90
16767;DHT22;8501;49.926;8.404;2023-06-22T04:52:31;23.50;99.90
16767;DHT22;8501;49.926;8.404;2023-06-22T04:54:56;23.50;99.90
16767;DHT22;8501;49.926;8.404;2023-06-22T04:57:25;23.50;99.90
16767;DHT22;8501;49.926;8.404;2023-06-22T04:59:57;23.50;99.90
16767;DHT22;8501;49.926;8.404;2023-06-22T05:02:26;23.50;99.90
16767;DHT22;8501;49.926;8.404;2023-06-22T05:04:53;23.60;99.90
16767;DHT22;8501;49.926;8.404;2023-06-22T05:07:22;23.60;99.90
16767;DHT22;8501;49.926;8.404;2023-06-22T05:09:50;23.60;99.90
16767;DHT22;8501;49.926;8.404;2023-06-22T05:12:16;23.60;99.90
16767;DHT22;8501;49.926;8.404;2023-06-22T05:14:41;23.60;99.90
16767;DHT22;8501;49.926;8.404;2023-06-22T05:17:07;23.50;99.90
16767;DHT22;8501;49.926;8.404;2023-06-22T05:19:38;23.60;99.90
16767;DHT22;8501;49.926;8.404;2023-06-22T05:22:04;23.60;99.90
16767;DHT22;8501;49.926;8.404;2023-06-22T05:24:31;23.50;99.90
16767;DHT22;8501;49.926;8.404;2023-06-22T05:26:57;23.60;99.90
16767;DHT22;8501;49.926;8.404;2023-06-22T05:29:22;23.60;99.90
16767;DHT22;8501;49.926;8.404;2023-06-22T05:31:49;23.70;99.90
16767;DHT22;8501;49.926;8.404;2023-06-22T05:34:14;23.80;99.90
16767;DHT22;8501;49.926;8.404;2023-06-22T05:36:40;23.80;99.90
16767;DHT22;8501;49.926;8.404;2023-06-22T05:39:12;23.80;99.90
16767;DHT22;8501;49.926;8.404;2023-06-22T05:41:41;23.80;99.90
16767;DHT22;8501;49.926;8.404;2023-06-22T05:44:06;23.80;99.90
16767;DHT22;8501;49.926;8.404;2023-06-22T05:46:32;23.90;99.90
16767;DHT22;8501;49.926;8.404;2023-06-22T05:48:58;23.90;99.90
16767;DHT22;8501;49.926;8.404;2023-06-22T05:51:23;23.90;99.90
16767;DHT22;8501;49.926;8.404;2023-06-22T05:53:49;24.00;99.90
16767;DHT22;8501;49.926;8.404;2023-06-22T05:56:18;24.10;99.90
16767;DHT22;8501;49.926;8.404;2023-06-22T05:58:43;24.10;99.90
16767;DHT22;8501;49.926;8.404;2023-06-22T06:01:12;24.10;99.90
16767;DHT22;8501;49.926;8.404;2023-06-22T06:03:37;24.10;99.90
16767;DHT22;8501;49.926;8.404;2023-06-22T06:06:06;24.10;99.90
16767;DHT22;8501;49.926;8.404;2023-06-22T06:08:32;24.10;99.90
16767;DHT22;8501;49.926;8.404;2023-06-22T06:10:57;24.20;99.90
16767;DHT22;8501;49.926;8.404;2023-06-22T06:13:23;24.20;99.90
16767;DHT22;8501;49.926;8.404;2023-06-22T06:15:49;24.30;99.90
16767;DHT22;8501;49.926;8.404;2023-06-22T06:18:16;24.30;99.90
16767;DHT22;8501;49.926;8.404;2023-06-22T06:20:42;24.30;99.90
16767;DHT22;8501;49.926;8.404;2023-06-22T06:23:08;24.30;99.90
16767;DHT22;8501;49.926;8.404;2023-06-22T06:25:33;24.40;99.90
16767;DHT22;8501;49.926;8.404;2023-06-22T06:27:59;24.50;99.90
16767;DHT22;8501;49.926;8.404;2023-06-22T06:30:24;24.50;99.90
16767;DHT22;8501;49.926;8.404;2023-06-22T06:32:50;24.50;99.90
16767;DHT22;8501;49.926;8.404;2023-06-22T06:35:16;24.60;99.90
16767;DHT22;8501;49.926;8.404;2023-06-22T06:37:44;24.60;99.90
16767;DHT22;8501;49.926;8.404;2023-06-22T06:40:11;24.70;99.90
16767;DHT22;8501;49.926;8.404;2023-06-22T06:42:41;24.70;99.90
16767;DHT22;8501;49.926;8.404;2023-06-22T06:45:14;24.70;99.90
16767;DHT22;8501;49.926;8.404;2023-06-22T06:47:40;24.80;99.90
16767;DHT22;8501;49.926;8.404;2023-06-22T06:50:06;24.90;99.90
16767;DHT22;8501;49.926;8.404;2023-06-22T06:52:32;24.90;99.90
16767;DHT22;8501;49.926;8.404;2023-06-22T06:54:58;24.90;99.90
16767;DHT22;8501;49.926;8.404;2023-06-22T06:57:24;25.00;99.90
16767;DHT22;8501;49.926;8.404;2023-06-22T06:59:57;25.00;99.90
16767;DHT22;8501;49.926;8.404;2023-06-22T07:02:23;25.10;99.90
16767;DHT22;8501;49.926;8.404;2023-06-22T07:04:49;25.10;99.90
16767;DHT22;8501;49.926;8.404;2023-06-22T07:07:15;25.10;99.90
16767;DHT22;8501;49.926;8.404;2023-06-22T07:09:40;25.10;99.90
16767;DHT22;8501;49.926;8.404;2023-06-22T07:12:06;25.20;99.90
16767;DHT22;8501;49.926;8.404;2023-06-22T07:14:32;25.20;99.90
16767;DHT22;8501;49.926;8.404;2023-06-22T07:16:58;25.20;99.90
16767;DHT22;8501;49.926;8.404;2023-06-22T07:19:27;25.30;99.90
16767;DHT22;8501;49.926;8.404;2023-06-22T07:21:53;25.30;99.90
16767;DHT22;8501;49.926;8.404;2023-06-22T07:24:22;25.30;99.90
16767;DHT22;8501;49.926;8.404;2023-06-22T07:26:48;25.40;99.90
16767;DHT22;8501;49.926;8.404;2023-06-22T07:29:16;25.50;99.90
16767;DHT22;8501;49.926;8.404;2023-06-22T07:31:42;25.50;99.90
16767;DHT22;8501;49.926;8.404;2023-06-22T07:34:07;25.50;99.90
16767;DHT22;8501;49.926;8.404;2023-06-22T07:36:33;25.60;99.90
16767;DHT22;8501;49.926;8.404;2023-06-22T07:39:01;25.70;99.90
16767;DHT22;8501;49.926;8.404;2023-06-22T07:41:28;25.80;99.90
16767;DHT22;8501;49.926;8.404;2023-06-22T07:43:53;25.80;99.90
16767;DHT22;8501;49.926;8.404;2023-06-22T07:46:19;25.90;99.90
16767;DHT22;8501;49.926;8.404;2023-06-22T07:48:44;25.90;99.90
16767;DHT22;8501;49.926;8.404;2023-06-22T07:51:10;25.90;99.90
16767;DHT22;8501;49.926;8.404;2023-06-22T07:53:39;25.90;99.90
16767;DHT22;8501;49.926;8.404;2023-06-22T07:56:05;26.00;99.90
16767;DHT22;8501;49.926;8.404;2023-06-22T07:58:32;26.10;99.90
16767;DHT22;8501;49.926;8.404;2023-06-22T08:00:58;26.10;99.90
16767;DHT22;8501;49.926;8.404;2023-06-22T08:03:24;26.20;99.90
16767;DHT22;8501;49.926;8.404;2023-06-22T08:05:49;26.30;99.90
16767;DHT22;8501;49.926;8.404;2023-06-22T08:08:15;26.30;99.90
16767;DHT22;8501;49.926;8.404;2023-06-22T08:10:42;26.40;99.90
16767;DHT22;8501;49.926;8.404;2023-06-22T08:13:07;26.40;99.90
16767;DHT22;8501;49.926;8.404;2023-06-22T08:15:33;26.40;99.90
16767;DHT22;8501;49.926;8.404;2023-06-22T08:17:59;26.40;99.90
16767;DHT22;8501;49.926;8.404;2023-06-22T08:20:25;26.40;99.90
16767;DHT22;8501;49.926;8.404;2023-06-22T08:22:53;26.50;99.90
16767;DHT22;8501;49.926;8.404;2023-06-22T08:25:19;26.60;99.90
16767;DHT22;8501;49.926;8.404;2023-06-22T08:27:47;26.70;99.90
16767;DHT22;8501;49.926;8.404;2023-06-22T08:30:14;26.80;99.90
16767;DHT22;8501;49.926;8.404;2023-06-22T08:32:40;26.80;99.90
16767;DHT22;8501;49.926;8.404;2023-06-22T08:35:06;26.90;99.90
16767;DHT22;8501;49.926;8.404;2023-06-22T08:37:35;26.90;99.90
16767;DHT22;8501;49.926;8.404;2023-06-22T08:40:02;26.90;99.90
16767;DHT22;8501;49.926;8.404;2023-06-22T08:42:33;26.90;99.90
16767;DHT22;8501;49.926;8.404;2023-06-22T08:44:58;27.00;99.90
16767;DHT22;8501;49.926;8.404;2023-06-22T08:47:24;27.10;99.90
16767;DHT22;8501;49.926;8.404;2023-06-22T08:49:49;27.10;99.90
16767;DHT22;8501;49.926;8.404;2023-06-22T08:52:15;27.20;99.90
16767;DHT22;8501;49.926;8.404;2023-06-22T08:54:41;27.20;99.90
16767;DHT22;8501;49.926;8.404;2023-06-22T08:57:06;27.20;99.90
16767;DHT22;8501;49.926;8.404;2023-06-22T08:59:32;27.20;99.90
16767;DHT22;8501;49.926;8.404;2023-06-22T09:01:58;27.30;99.90
16767;DHT22;8501;49.926;8.404;2023-06-22T09:04:23;27.40;99.90
16767;DHT22;8501;49.926;8.404;2023-06-22T09:06:49;27.40;99.90
16767;DHT22;8501;49.926;8.404;2023-06-22T09:09:17;27.50;99.90
16767;DHT22;8501;49.926;8.404;2023-06-22T09:11:43;27.60;99.90
16767;DHT22;8501;49.926;8.404;2023-06-22T09:14:09;27.70;99.90
16767;DHT22;8501;49.926;8.404;2023-06-22T09:16:35;27.80;99.90
16767;DHT22;8501;49.926;8.404;2023-06-22T09:19:01;27.80;99.90
16767;DHT22;8501;49.926;8.404;2023-06-22T09:21:26;27.90;99.90
16767;DHT22;8501;49.926;8.404;2023-06-22T09:23:52;27.90;99.90
16767;DHT22;8501;49.926;8.404;2023-06-22T09:26:18;28.00;99.90
16767;DHT22;8501;49.926;8.404;2023-06-22T09:28:43;27.90;99.90
16767;DHT22;8501;49.926;8.404;2023-06-22T09:31:09;28.00;99.90
16767;DHT22;8501;49.926;8.404;2023-06-22T09:33:35;28.00;99.90
16767;DHT22;8501;49.926;8.404;2023-06-22T09:36:01;28.10;99.90
16767;DHT22;8501;49.926;8.404;2023-06-22T09:38:27;28.10;99.90
16767;DHT22;8501;49.926;8.404;2023-06-22T09:40:52;28.20;99.90
16767;DHT22;8501;49.926;8.404;2023-06-22T09:43:18;28.30;99.90
16767;DHT22;8501;49.926;8.404;2023-06-22T09:45:43;28.40;99.90
16767;DHT22;8501;49.926;8.404;2023-06-22T09:48:09;28.50;99.90
16767;DHT22;8501;49.926;8.404;2023-06-22T09:50:35;28.50;99.90
16767;DHT22;8501;49.926;8.404;2023-06-22T09:53:01;28.60;99.90
16767;DHT22;8501;49.926;8.404;2023-06-22T09:55:27;28.60;99.90
16767;DHT22;8501;49.926;8.404;2023-06-22T09:57:52;28.60;99.90
16767;DHT22;8501;49.926;8.404;2023-06-22T10:00:18;28.60;99.90
16767;DHT22;8501;49.926;8.404;2023-06-22T10:02:44;28.60;99.90
16767;DHT22;8501;49.926;8.404;2023-06-22T10:05:10;28.70;99.90
16767;DHT22;8501;49.926;8.404;2023-06-22T10:07:35;28.70;99.90
16767;DHT22;8501;49.926;8.404;2023-06-22T10:10:08;28.80;99.90
16767;DHT22;8501;49.926;8.404;2023-06-22T10:12:33;28.80;99.90
16767;DHT22;8501;49.926;8.404;2023-06-22T10:14:59;28.90;99.90
16767;DHT22;8501;49.926;8.404;2023-06-22T10:17:24;29.00;99.90
16767;DHT22;8501;49.926;8.404;2023-06-22T10:19:50;29.00;99.90
16767;DHT22;8501;49.926;8.404;2023-06-22T10:22:15;29.10;99.90
16767;DHT22;8501;49.926;8.404;2023-06-22T10:24:41;29.10;99.90
16767;DHT22;8501;49.926;8.404;2023-06-22T10:27:10;29.20;99.90
16767;DHT22;8501;49.926;8.404;2023-06-22T10:29:37;29.20;99.90
16767;DHT22;8501;49.926;8.404;2023-06-22T10:32:03;29.30;99.90
16767;DHT22;8501;49.926;8.404;2023-06-22T10:34:29;29.40;99.90
16767;DHT22;8501;49.926;8.404;2023-06-22T10:36:54;29.50;99.90
16767;DHT22;8501;49.926;8.404;2023-06-22T10:39:20;29.40;99.90
16767;DHT22;8501;49.926;8.404;2023-06-22T10:41:45;29.40;99.90
16767;DHT22;8501;49.926;8.404;2023-06-22T10:44:11;29.50;99.90
16767;DHT22;8501;49.926;8.404;2023-06-22T10:46:37;29.70;99.90
16767;DHT22;8501;49.926;8.404;2023-06-22T10:49:03;29.70;99.90
16767;DHT22;8501;49.926;8.404;2023-06-22T10:51:28;29.80;99.90
16767;DHT22;8501;49.926;8.404;2023-06-22T10:53:54;29.80;99.90
16767;DHT22;8501;49.926;8.404;2023-06-22T10:56:20;29.80;99.90
16767;DHT22;8501;49.926;8.404;2023-06-22T10:58:46;29.90;99.90
16767;DHT22;8501;49.926;8.404;2023-06-22T11:01:11;29.90;99.90
16767;DHT22;8501;49.926;8.404;2023-06-22T11:03:37;29.80;99.90
16767;DHT22;8501;49.926;8.404;2023-06-22T11:06:02;29.90;99.90
16767;DHT22;8501;49.926;8.404;2023-06-22T11:08:28;29.90;99.90
16767;DHT22;8501;49.926;8.404;2023-06-22T11:10:53;30.00;99.90
16767;DHT22;8501;49.926;8.404;2023-06-22T11:13:19;29.90;99.90
16767;DHT22;8501;49.926;8.404;2023-06-22T11:15:45;29.90;99.90
16767;DHT22;8501;49.926;8.404;2023-06-22T11:18:10;29.90;99.90
16767;DHT22;8501;49.926;8.404;2023-06-22T11:20:36;30.00;99.90
16767;DHT22;8501;49.926;8.404;2023-06-22T11:23:05;30.10;99.90
16767;DHT22;8501;49.926;8.404;2023-06-22T11:25:31;30.00;99.90
16767;DHT22;8501;49.926;8.404;2023-06-22T11:27:57;30.10;99.90
16767;DHT22;8501;49.926;8.404;2023-06-22T11:30:22;30.20;99.90
16767;DHT22;8501;49.926;8.404;2023-06-22T11:32:48;30.20;99.90
16767;DHT22;8501;49.926;8.404;2023-06-22T11:35:14;30.20;99.90
16767;DHT22;8501;49.926;8.404;2023-06-22T11:37:39;30.20;99.90
16767;DHT22;8501;49.926;8.404;2023-06-22T11:40:05;30.20;99.90
16767;DHT22;8501;49.926;8.404;2023-06-22T11:42:34;30.30;99.90
16767;DHT22;8501;49.926;8.404;2023-06-22T11:45:00;30.30;99.90
16767;DHT22;8501;49.926;8.404;2023-06-22T11:47:25;30.40;99.90
16767;DHT22;8501;49.926;8.404;2023-06-22T11:49:51;30.50;99.90
16767;DHT22;8501;49.926;8.404;2023-06-22T11:52:16;30.50;99.90
16767;DHT22;8501;49.926;8.404;2023-06-22T11:54:43;30.60;99.90
16767;DHT22;8501;49.926;8.404;2023-06-22T11:57:08;30.70;99.90
16767;DHT22;8501;49.926;8.404;2023-06-22T11:59:34;30.70;99.90
16767;DHT22;8501;49.926;8.404;2023-06-22T12:01:59;30.80;99.90
16767;DHT22;8501;49.926;8.404;2023-06-22T12:04:25;30.80;99.90
16767;DHT22;8501;49.926;8.404;2023-06-22T12:06:51;30.90;99.90
16767;DHT22;8501;49.926;8.404;2023-06-22T12:09:16;31.00;99.90
16767;DHT22;8501;49.926;8.404;2023-06-22T12:11:42;31.10;99.90
16767;DHT22;8501;49.926;8.404;2023-06-22T12:14:07;31.20;99.90
16767;DHT22;8501;49.926;8.404;2023-06-22T12:16:33;31.20;99.90
16767;DHT22;8501;49.926;8.404;2023-06-22T12:18:58;31.30;99.90
16767;DHT22;8501;49.926;8.404;2023-06-22T12:21:24;31.40;99.90
16767;DHT22;8501;49.926;8.404;2023-06-22T12:23:49;31.40;99.90
16767;DHT22;8501;49.926;8.404;2023-06-22T12:26:15;31.40;99.90
16767;DHT22;8501;49.926;8.404;2023-06-22T12:28:41;31.40;99.90
16767;DHT22;8501;49.926;8.404;2023-06-22T12:31:06;31.50;99.90
16767;DHT22;8501;49.926;8.404;2023-06-22T12:33:32;31.40;99.90
16767;DHT22;8501;49.926;8.404;2023-06-22T12:35:57;31.40;99.90
16767;DHT22;8501;49.926;8.404;2023-06-22T12:38:23;31.40;99.90
16767;DHT22;8501;49.926;8.404;2023-06-22T12:40:51;31.40;99.90
16767;DHT22;8501;49.926;8.404;2023-06-22T12:43:17;31.40;99.90
16767;DHT22;8501;49.926;8.404;2023-06-22T12:45:42;31.50;99.90
16767;DHT22;8501;49.926;8.404;2023-06-22T12:48:08;31.50;99.90
16767;DHT22;8501;49.926;8.404;2023-06-22T12:50:34;31.60;99.90
16767;DHT22;8501;49.926;8.404;2023-06-22T12:52:59;31.60;99.90
16767;DHT22;8501;49.926;8.404;2023-06-22T12:55:27;31.60;99.90
16767;DHT22;8501;49.926;8.404;2023-06-22T12:57:52;31.60;99.90
16767;DHT22;8501;49.926;8.404;2023-06-22T13:00:18;31.50;99.90
16767;DHT22;8501;49.926;8.404;2023-06-22T13:02:45;31.50;99.90
16767;DHT22;8501;49.926;8.404;2023-06-22T13:05:10;31.50;99.90
16767;DHT22;8501;49.926;8.404;2023-06-22T13:07:36;31.60;99.90
16767;DHT22;8501;49.926;8.404;2023-06-22T13:10:01;31.70;99.90
16767;DHT22;8501;49.926;8.404;2023-06-22T13:12:27;31.80;99.90
16767;DHT22;8501;49.926;8.404;2023-06-22T13:14:53;31.80;99.90
16767;DHT22;8501;49.926;8.404;2023-06-22T13:17:18;31.80;99.90
16767;DHT22;8501;49.926;8.404;2023-06-22T13:19:44;31.80;99.90
16767;DHT22;8501;49.926;8.404;2023-06-22T13:22:32;31.80;99.90
16767;DHT22;8501;49.926;8.404;2023-06-22T13:25:00;31.80;99.90
16767;DHT22;8501;49.926;8.404;2023-06-22T13:27:25;31.80;99.90
16767;DHT22;8501;49.926;8.404;2023-06-22T13:29:52;31.80;99.90
16767;DHT22;8501;49.926;8.404;2023-06-22T13:32:18;31.90;99.90
16767;DHT22;8501;49.926;8.404;2023-06-22T13:34:44;31.90;99.90
16767;DHT22;8501;49.926;8.404;2023-06-22T13:37:09;32.00;99.90
16767;DHT22;8501;49.926;8.404;2023-06-22T13:39:35;32.20;99.90
16767;DHT22;8501;49.926;8.404;2023-06-22T13:42:00;32.40;99.90
16767;DHT22;8501;49.926;8.404;2023-06-22T13:44:26;32.50;99.90
16767;DHT22;8501;49.926;8.404;2023-06-22T13:46:55;32.60;99.90
16767;DHT22;8501;49.926;8.404;2023-06-22T13:49:20;32.70;99.90
16767;DHT22;8501;49.926;8.404;2023-06-22T13:51:47;32.80;99.90
16767;DHT22;8501;49.926;8.404;2023-06-22T13:54:16;32.80;99.90
16767;DHT22;8501;49.926;8.404;2023-06-22T13:56:41;32.90;99.90
16767;DHT22;8501;49.926;8.404;2023-06-22T13:59:07;32.90;99.90
16767;DHT22;8501;49.926;8.404;2023-06-22T14:01:35;33.10;99.90
16767;DHT22;8501;49.926;8.404;2023-06-22T14:04:00;33.10;99.90
16767;DHT22;8501;49.926;8.404;2023-06-22T14:06:27;33.30;99.90
16767;DHT22;8501;49.926;8.404;2023-06-22T14:08:53;33.30;99.90
16767;DHT22;8501;49.926;8.404;2023-06-22T14:11:18;33.40;99.90
16767;DHT22;8501;49.926;8.404;2023-06-22T14:13:44;33.30;99.90
16767;DHT22;8501;49.926;8.404;2023-06-22T14:16:10;33.30;99.90
16767;DHT22;8501;49.926;8.404;2023-06-22T14:18:35;33.30;99.90
16767;DHT22;8501;49.926;8.404;2023-06-22T14:21:01;33.10;99.90
16767;DHT22;8501;49.926;8.404;2023-06-22T14:23:27;33.00;99.90
16767;DHT22;8501;49.926;8.404;2023-06-22T14:25:52;32.80;99.90
16767;DHT22;8501;49.926;8.404;2023-06-22T14:28:18;32.80;99.90
16767;DHT22;8501;49.926;8.404;2023-06-22T14:30:44;32.70;99.90
16767;DHT22;8501;49.926;8.404;2023-06-22T14:33:09;32.70;99.90
16767;DHT22;8501;49.926;8.404;2023-06-22T14:35:35;32.70;99.90
16767;DHT22;8501;49.926;8.404;2023-06-22T14:38:00;32.60;99.90
16767;DHT22;8501;49.926;8.404;2023-06-22T14:40:26;32.70;99.90
16767;DHT22;8501;49.926;8.404;2023-06-22T14:42:51;32.70;99.90
16767;DHT22;8501;49.926;8.404;2023-06-22T14:45:17;32.50;99.90
16767;DHT22;8501;49.926;8.404;2023-06-22T14:47:42;32.40;99.90
16767;DHT22;8501;49.926;8.404;2023-06-22T14:50:08;32.40;99.90
16767;DHT22;8501;49.926;8.404;2023-06-22T14:52:33;32.20;99.90
16767;DHT22;8501;49.926;8.404;2023-06-22T14:54:59;32.20;99.90
16767;DHT22;8501;49.926;8.404;2023-06-22T14:57:25;32.10;99.90
16767;DHT22;8501;49.926;8.404;2023-06-22T14:59:50;32.20;99.90
16767;DHT22;8501;49.926;8.404;2023-06-22T15:02:16;32.10;99.90
16767;DHT22;8501;49.926;8.404;2023-06-22T15:04:41;31.90;99.90
16767;DHT22;8501;49.926;8.404;2023-06-22T15:07:07;31.90;99.90
16767;DHT22;8501;49.926;8.404;2023-06-22T15:09:32;31.90;99.90
16767;DHT22;8501;49.926;8.404;2023-06-22T15:11:58;32.00;99.90
16767;DHT22;8501;49.926;8.404;2023-06-22T15:14:27;32.20;99.90
16767;DHT22;8501;49.926;8.404;2023-06-22T15:16:52;32.40;99.90
16767;DHT22;8501;49.926;8.404;2023-06-22T15:19:18;32.40;99.90
16767;DHT22;8501;49.926;8.404;2023-06-22T15:21:44;32.60;99.90
16767;DHT22;8501;49.926;8.404;2023-06-22T15:24:09;32.60;99.90
16767;DHT22;8501;49.926;8.404;2023-06-22T15:26:35;32.50;99.90
16767;DHT22;8501;49.926;8.404;2023-06-22T15:29:00;32.50;99.90
16767;DHT22;8501;49.926;8.404;2023-06-22T15:31:26;32.60;99.90
16767;DHT22;8501;49.926;8.404;2023-06-22T15:33:52;32.60;99.90
16767;DHT22;8501;49.926;8.404;2023-06-22T15:36:17;32.60;99.90
16767;DHT22;8501;49.926;8.404;2023-06-22T15:38:43;32.50;99.90
16767;DHT22;8501;49.926;8.404;2023-06-22T15:41:09;32.30;99.90
16767;DHT22;8501;49.926;8.404;2023-06-22T15:43:34;32.20;99.90
16767;DHT22;8501;49.926;8.404;2023-06-22T15:46:00;32.00;99.90
16767;DHT22;8501;49.926;8.404;2023-06-22T15:48:25;31.90;99.90